createdAt,value
2022-09-30T00:01:39.916Z,99.90
2022-09-30T00:04:12.886Z,99.90
2022-09-30T00:06:40.239Z,99.90
2022-09-30T00:09:08.152Z,99.90
2022-09-30T00:11:36.025Z,99.90
2022-09-30T00:14:03.457Z,99.90
2022-09-30T00:16:34.218Z,99.90
2022-09-30T00:19:03.038Z,99.90
2022-09-30T00:21:30.569Z,99.90
2022-09-30T00:23:58.024Z,99.90
2022-09-30T00:26:25.625Z,99.90
2022-09-30T00:28:55.333Z,99.90
2022-09-30T00:31:24.491Z,99.90
2022-09-30T00:34:07.547Z,99.90
2022-09-30T00:36:48.399Z,99.90
2022-09-30T00:39:18.758Z,99.90
2022-09-30T00:41:48.648Z,99.90
2022-09-30T00:44:45.624Z,99.90
2022-09-30T00:47:31.936Z,99.90
2022-09-30T00:50:24.750Z,99.90
2022-09-30T00:53:31.973Z,99.90
2022-09-30T00:56:11.887Z,99.90
2022-09-30T00:58:43.948Z,99.90
2022-09-30T01:01:11.651Z,99.90
2022-09-30T01:03:43.140Z,99.90
2022-09-30T01:06:10.564Z,99.90
2022-09-30T01:08:40.272Z,99.90
2022-09-30T01:11:08.502Z,99.90
2022-09-30T01:13:37.140Z,99.90
2022-09-30T01:16:14.462Z,99.90
2022-09-30T01:19:26.088Z,99.90
2022-09-30T01:22:15.018Z,99.90
2022-09-30T01:25:08.925Z,99.90
2022-09-30T01:27:47.382Z,99.90
2022-09-30T01:30:21.875Z,99.90
2022-09-30T01:33:04.006Z,99.90
2022-09-30T01:36:03.653Z,99.90
2022-09-30T01:38:49.858Z,99.90
2022-09-30T01:41:29.286Z,99.90
2022-09-30T01:44:12.404Z,99.90
2022-09-30T01:46:48.269Z,99.90
2022-09-30T01:49:46.077Z,99.90
2022-09-30T01:52:31.473Z,99.90
2022-09-30T01:55:26.103Z,99.90
2022-09-30T01:58:16.759Z,99.90
2022-09-30T02:00:49.875Z,99.90
2022-09-30T02:03:23.633Z,99.90
2022-09-30T02:06:02.310Z,99.90
2022-09-30T02:09:01.472Z,99.90
2022-09-30T02:11:33.062Z,99.90
2022-09-30T02:14:03.439Z,99.90
2022-09-30T02:16:46.923Z,99.90
2022-09-30T02:19:17.505Z,99.90
2022-09-30T02:21:52.456Z,99.90
2022-09-30T02:24:25.203Z,99.90
2022-09-30T02:26:56.751Z,99.90
2022-09-30T02:29:34.819Z,99.90
2022-09-30T02:32:10.392Z,99.90
2022-09-30T02:34:45.445Z,99.90
2022-09-30T02:37:28.285Z,99.90
2022-09-30T02:40:11.151Z,99.90
2022-09-30T02:42:39.364Z,99.90
2022-09-30T02:45:10.656Z,99.90
2022-09-30T02:47:53.477Z,99.90
2022-09-30T02:50:24.833Z,99.90
2022-09-30T02:53:20.143Z,99.90
2022-09-30T02:56:19.965Z,99.90
2022-09-30T02:58:48.047Z,99.90
2022-09-30T03:01:17.134Z,99.90
2022-09-30T03:04:04.629Z,99.90
2022-09-30T03:06:34.626Z,99.90
2022-09-30T03:09:02.173Z,99.90
2022-09-30T03:11:30.904Z,99.90
2022-09-30T03:14:04.383Z,99.90
2022-09-30T03:16:37.490Z,99.90
2022-09-30T03:19:37.047Z,99.90
2022-09-30T03:22:21.161Z,99.90
2022-09-30T03:24:49.202Z,99.90
2022-09-30T03:27:36.155Z,99.90
2022-09-30T03:30:08.416Z,99.90
2022-09-30T03:32:56.720Z,99.90
2022-09-30T03:35:46.822Z,99.90
2022-09-30T03:38:44.710Z,99.90
2022-09-30T03:41:23.670Z,99.90
2022-09-30T03:44:22.196Z,99.90
2022-09-30T03:46:57.580Z,99.90
2022-09-30T03:49:30.409Z,99.90
2022-09-30T03:51:59.741Z,99.90
2022-09-30T03:54:27.064Z,99.90
2022-09-30T03:56:54.300Z,99.90
2022-09-30T03:59:28.409Z,99.90
2022-09-30T04:01:57.459Z,99.90
2022-09-30T04:04:25.238Z,99.90
2022-09-30T04:06:52.517Z,99.90
2022-09-30T04:09:19.829Z,99.90
2022-09-30T04:11:47.176Z,99.90
2022-09-30T04:14:14.689Z,99.90
2022-09-30T04:16:42.903Z,99.90
2022-09-30T04:19:10.318Z,99.90
2022-09-30T04:21:37.597Z,99.90
2022-09-30T04:24:05.061Z,99.90
2022-09-30T04:26:32.405Z,99.90
2022-09-30T04:28:59.631Z,99.90
2022-09-30T04:31:27.966Z,99.90
2022-09-30T04:33:57.091Z,99.90
2022-09-30T04:36:24.484Z,99.90
2022-09-30T04:38:53.393Z,99.90
2022-09-30T04:41:20.867Z,99.90
2022-09-30T04:43:48.599Z,99.90
2022-09-30T04:46:17.546Z,99.90
2022-09-30T04:48:46.149Z,99.90
2022-09-30T04:51:15.635Z,99.90
2022-09-30T04:53:43.632Z,99.90
2022-09-30T04:56:11.482Z,99.90
2022-09-30T04:58:38.956Z,99.90
2022-09-30T05:01:12.145Z,99.90
2022-09-30T05:03:40.118Z,99.90
2022-09-30T05:06:07.720Z,99.90
2022-09-30T05:08:35.241Z,99.90
2022-09-30T05:11:05.626Z,99.90
2022-09-30T05:13:35.194Z,99.90
2022-09-30T05:16:03.145Z,99.90
2022-09-30T05:18:30.452Z,99.90
2022-09-30T05:20:58.298Z,99.90
2022-09-30T05:23:27.288Z,99.90
2022-09-30T05:25:54.986Z,99.90
2022-09-30T05:28:22.513Z,99.90
2022-09-30T05:30:54.416Z,99.90
2022-09-30T05:33:21.677Z,99.90
2022-09-30T05:35:48.953Z,99.90
2022-09-30T05:38:16.167Z,99.90
2022-09-30T05:40:43.478Z,99.90
2022-09-30T05:43:10.763Z,99.90
2022-09-30T05:45:39.081Z,99.90
2022-09-30T05:48:06.955Z,99.90
2022-09-30T05:50:34.740Z,99.90
2022-09-30T05:53:02.057Z,99.90
2022-09-30T05:55:30.005Z,99.90
2022-09-30T05:57:57.301Z,99.90
2022-09-30T06:00:24.583Z,99.90
2022-09-30T06:02:52.503Z,99.90
2022-09-30T06:05:20.018Z,99.90
2022-09-30T06:07:47.414Z,99.90
2022-09-30T06:10:14.684Z,99.90
2022-09-30T06:12:41.914Z,99.90
2022-09-30T06:15:10.196Z,99.90
2022-09-30T06:17:37.581Z,99.90
2022-09-30T06:20:05.520Z,99.90
2022-09-30T06:22:35.921Z,99.90
2022-09-30T06:25:06.887Z,99.90
2022-09-30T06:27:34.403Z,99.90
2022-09-30T06:30:01.885Z,99.90
2022-09-30T06:32:30.113Z,99.90
2022-09-30T06:34:57.444Z,99.90
2022-09-30T06:37:25.377Z,99.90
2022-09-30T06:39:52.618Z,99.90
2022-09-30T06:42:20.189Z,99.90
2022-09-30T06:44:52.628Z,99.90
2022-09-30T06:47:25.249Z,99.90
2022-09-30T06:49:54.474Z,99.90
2022-09-30T06:52:21.796Z,99.90
2022-09-30T06:54:51.110Z,99.90
2022-09-30T06:57:22.367Z,99.90
2022-09-30T06:59:50.630Z,99.90
2022-09-30T07:02:17.970Z,99.90
2022-09-30T07:04:45.264Z,99.90
2022-09-30T07:07:12.564Z,99.90
2022-09-30T07:09:39.986Z,99.90
2022-09-30T07:12:07.404Z,99.90
2022-09-30T07:14:35.838Z,99.90
2022-09-30T07:17:04.559Z,99.90
2022-09-30T07:19:34.238Z,99.90
2022-09-30T07:22:22.080Z,99.90
2022-09-30T07:24:49.394Z,99.90
2022-09-30T07:27:16.782Z,99.90
2022-09-30T07:30:07.640Z,99.90
2022-09-30T07:32:32.185Z,99.90
2022-09-30T07:34:59.583Z,99.90
2022-09-30T07:37:26.945Z,99.90
2022-09-30T07:39:54.332Z,99.90
2022-09-30T07:42:22.854Z,99.90
2022-09-30T07:44:52.066Z,99.90
2022-09-30T07:47:20.416Z,99.90
2022-09-30T07:49:48.082Z,99.90
2022-09-30T07:52:15.424Z,99.90
2022-09-30T07:54:48.126Z,99.90
2022-09-30T07:57:18.141Z,99.90
2022-09-30T07:59:45.489Z,99.90
2022-09-30T08:02:18.450Z,99.90
2022-09-30T08:04:46.463Z,99.90
2022-09-30T08:07:15.638Z,99.90
2022-09-30T08:09:43.164Z,99.90
2022-09-30T08:12:10.626Z,99.90
2022-09-30T08:14:37.869Z,99.90
2022-09-30T08:17:05.269Z,99.90
2022-09-30T08:19:33.847Z,99.90
2022-09-30T08:24:33.837Z,99.90
2022-09-30T08:27:01.114Z,99.90
2022-09-30T08:32:15.924Z,99.90
2022-09-30T08:34:43.223Z,99.90
2022-09-30T08:37:10.613Z,99.90
2022-09-30T08:39:38.751Z,99.90
2022-09-30T08:42:36.040Z,99.90
2022-09-30T08:45:19.485Z,99.90
2022-09-30T08:48:19.816Z,99.90
2022-09-30T08:51:20.701Z,99.90
2022-09-30T08:53:49.697Z,99.90
2022-09-30T08:56:24.366Z,99.90
2022-09-30T08:58:59.425Z,99.90
2022-09-30T09:01:38.233Z,99.90
2022-09-30T09:04:07.787Z,99.90
2022-09-30T09:06:50.293Z,99.90
2022-09-30T09:09:34.344Z,99.90
2022-09-30T09:12:32.064Z,99.90
2022-09-30T09:15:11.280Z,99.90
2022-09-30T09:18:24.301Z,99.90
2022-09-30T09:21:00.356Z,99.90
2022-09-30T09:23:31.839Z,99.90
2022-09-30T09:26:00.018Z,99.70
2022-09-30T09:28:53.746Z,97.50
2022-09-30T09:31:21.743Z,99.90
2022-09-30T09:33:49.188Z,98.60
2022-09-30T09:36:46.720Z,97.20
2022-09-30T09:39:37.837Z,99.90
2022-09-30T09:42:26.733Z,99.70
2022-09-30T09:45:26.059Z,97.20
2022-09-30T09:47:53.978Z,94.80
2022-09-30T09:50:38.727Z,95.40
2022-09-30T09:53:08.742Z,97.00
2022-09-30T09:55:37.694Z,97.70
2022-09-30T09:58:13.826Z,94.60
2022-09-30T10:00:47.736Z,96.60
2022-09-30T10:03:25.223Z,97.10
2022-09-30T10:06:10.732Z,98.00
2022-09-30T10:08:40.560Z,97.20
2022-09-30T10:11:21.110Z,97.10
2022-09-30T10:13:50.723Z,94.90
2022-09-30T10:16:37.902Z,94.30
2022-09-30T10:19:21.284Z,97.00
2022-09-30T10:21:48.717Z,96.40
2022-09-30T10:24:26.785Z,95.70
2022-09-30T10:26:54.075Z,95.70
2022-09-30T10:29:35.740Z,93.60
2022-09-30T10:32:08.919Z,96.90
2022-09-30T10:34:40.059Z,95.90
2022-09-30T10:37:19.681Z,96.90
2022-09-30T10:40:01.607Z,99.90
2022-09-30T10:42:32.282Z,99.90
2022-09-30T10:45:10.045Z,99.90
2022-09-30T10:47:44.594Z,99.90
2022-09-30T10:50:20.582Z,99.90
2022-09-30T10:52:56.365Z,99.90
2022-09-30T10:55:29.359Z,99.90
2022-09-30T10:58:17.602Z,99.90
2022-09-30T11:00:46.792Z,99.90
2022-09-30T11:03:20.950Z,99.90
2022-09-30T11:05:50.384Z,99.90
2022-09-30T11:08:35.057Z,99.90
2022-09-30T11:11:14.036Z,99.90
2022-09-30T11:13:57.105Z,99.90
2022-09-30T11:16:49.012Z,99.90
2022-09-30T11:19:41.050Z,99.90
2022-09-30T11:22:53.600Z,99.90
2022-09-30T11:25:49.713Z,99.90
2022-09-30T11:28:39.823Z,99.90
2022-09-30T11:31:16.001Z,99.90
2022-09-30T11:34:05.464Z,99.90
2022-09-30T11:36:49.479Z,99.90
2022-09-30T11:39:52.882Z,99.90
2022-09-30T11:42:42.594Z,99.90
2022-09-30T11:45:30.447Z,99.90
2022-09-30T11:48:12.522Z,99.90
2022-09-30T11:50:50.224Z,99.90
2022-09-30T11:53:29.434Z,99.90
2022-09-30T11:55:59.471Z,99.90
2022-09-30T11:58:41.386Z,99.90
2022-09-30T12:01:28.334Z,99.90
2022-09-30T12:04:01.984Z,99.90
2022-09-30T12:06:41.614Z,99.90
2022-09-30T12:09:26.638Z,99.90
2022-09-30T12:11:59.970Z,99.90
2022-09-30T12:14:34.200Z,99.90
2022-09-30T12:17:04.958Z,99.90
2022-09-30T12:19:53.177Z,99.90
2022-09-30T12:22:44.049Z,99.90
2022-09-30T12:25:22.773Z,99.90
2022-09-30T12:28:28.384Z,99.90
2022-09-30T12:31:24.085Z,99.90
2022-09-30T12:34:16.374Z,99.90
2022-09-30T12:36:50.002Z,99.90
2022-09-30T12:39:26.377Z,99.90
2022-09-30T12:42:07.158Z,99.90
2022-09-30T12:45:07.757Z,99.90
2022-09-30T12:47:46.054Z,99.90
2022-09-30T12:50:17.952Z,99.90
2022-09-30T12:52:45.886Z,99.90
2022-09-30T12:55:31.184Z,99.90
2022-09-30T12:58:03.145Z,99.90
2022-09-30T13:00:34.905Z,99.90
2022-09-30T13:03:09.000Z,99.90
2022-09-30T13:05:39.063Z,99.90
2022-09-30T13:08:06.268Z,99.90
2022-09-30T13:10:33.485Z,99.90
2022-09-30T13:13:23.581Z,99.90
2022-09-30T13:16:03.423Z,99.90
2022-09-30T13:18:30.800Z,99.90
2022-09-30T13:21:04.357Z,99.90
2022-09-30T13:23:55.129Z,99.90
2022-09-30T13:26:34.818Z,99.90
2022-09-30T13:29:02.148Z,99.90
2022-09-30T13:31:53.190Z,99.90
2022-09-30T13:34:26.379Z,99.90
2022-09-30T13:36:53.598Z,99.90
2022-09-30T13:39:29.452Z,99.90
2022-09-30T13:42:24.474Z,99.90
2022-09-30T13:45:21.517Z,99.90
2022-09-30T13:47:56.479Z,99.90
2022-09-30T13:50:32.450Z,99.90
2022-09-30T13:53:05.329Z,99.90
2022-09-30T13:55:39.537Z,99.90
2022-09-30T13:58:27.861Z,99.90
2022-09-30T14:01:03.466Z,99.90
2022-09-30T14:03:51.083Z,99.90
2022-09-30T14:06:46.130Z,99.90
2022-09-30T14:09:54.958Z,99.90
2022-09-30T14:12:43.003Z,99.90
2022-09-30T14:15:25.393Z,99.90
2022-09-30T14:18:23.297Z,99.90
2022-09-30T14:21:25.771Z,99.90
2022-09-30T14:24:04.176Z,99.90
2022-09-30T14:26:55.428Z,99.90
2022-09-30T14:29:37.756Z,99.90
2022-09-30T14:32:19.216Z,99.90
2022-09-30T14:34:48.580Z,99.90
2022-09-30T14:37:27.731Z,99.90
2022-09-30T14:39:55.659Z,99.90
2022-09-30T14:42:31.930Z,99.90
2022-09-30T14:45:04.589Z,99.90
2022-09-30T14:47:37.540Z,99.90
2022-09-30T14:50:11.053Z,99.90
2022-09-30T14:52:43.968Z,99.90
2022-09-30T14:55:25.493Z,99.90
2022-09-30T14:58:18.719Z,99.90
2022-09-30T15:01:09.477Z,99.90
2022-09-30T15:03:43.541Z,99.90
2022-09-30T15:06:23.208Z,99.90
2022-09-30T15:08:54.522Z,99.90
2022-09-30T15:11:26.046Z,99.90
2022-09-30T15:14:04.565Z,99.90
2022-09-30T15:16:33.218Z,99.90
2022-09-30T15:19:01.103Z,99.90
2022-09-30T15:21:31.907Z,99.90
2022-09-30T15:24:00.670Z,99.90
2022-09-30T15:26:28.259Z,99.90
2022-09-30T15:28:55.782Z,99.90
2022-09-30T15:31:27.158Z,99.90
2022-09-30T15:34:06.346Z,99.90
2022-09-30T15:36:35.929Z,99.90
2022-09-30T15:39:04.676Z,99.90
2022-09-30T15:41:39.776Z,99.90
2022-09-30T15:44:19.993Z,99.90
2022-09-30T15:47:09.302Z,99.90
2022-09-30T15:49:40.850Z,99.90
2022-09-30T15:52:28.062Z,99.90
2022-09-30T15:54:56.825Z,99.90
2022-09-30T15:57:45.314Z,99.90
2022-09-30T16:00:35.314Z,99.90
2022-09-30T16:03:18.447Z,99.90
2022-09-30T16:05:49.612Z,99.90
2022-09-30T16:08:28.609Z,99.90
2022-09-30T16:10:58.292Z,99.90
2022-09-30T16:13:30.097Z,99.90
2022-09-30T16:15:58.475Z,99.90
2022-09-30T16:18:34.060Z,99.90
2022-09-30T16:21:04.862Z,99.90
2022-09-30T16:23:37.686Z,99.90
2022-09-30T16:26:33.139Z,99.90
2022-09-30T16:29:08.068Z,99.90
2022-09-30T16:31:38.023Z,99.90
2022-09-30T16:34:05.504Z,99.90
2022-09-30T16:36:33.446Z,99.90
2022-09-30T16:39:01.017Z,99.90
2022-09-30T16:41:28.710Z,99.90
2022-09-30T16:43:55.987Z,99.90
2022-09-30T16:46:23.326Z,99.90
2022-09-30T16:48:50.617Z,99.90
2022-09-30T16:51:17.897Z,99.90
2022-09-30T16:53:47.824Z,99.90
2022-09-30T16:56:18.200Z,99.90
2022-09-30T16:58:46.951Z,99.90
2022-09-30T17:01:20.838Z,99.90
2022-09-30T17:03:48.872Z,99.90
2022-09-30T17:06:17.878Z,99.90
2022-09-30T17:08:45.389Z,99.90
2022-09-30T17:11:12.690Z,99.90
2022-09-30T17:13:40.075Z,99.90
2022-09-30T17:16:08.454Z,99.90
2022-09-30T17:18:35.775Z,99.90
2022-09-30T17:21:03.448Z,99.90
2022-09-30T17:23:30.653Z,99.90
2022-09-30T17:25:58.454Z,99.90
2022-09-30T17:28:25.745Z,99.90
2022-09-30T17:30:53.072Z,99.90
2022-09-30T17:33:20.312Z,99.90
2022-09-30T17:36:01.140Z,99.90
2022-09-30T17:38:28.676Z,99.90
2022-09-30T17:41:14.503Z,99.90
2022-09-30T17:43:41.930Z,99.90
2022-09-30T17:46:09.480Z,99.90
2022-09-30T17:48:38.072Z,99.90
2022-09-30T17:51:05.963Z,99.90
2022-09-30T17:53:33.250Z,99.90
2022-09-30T17:56:04.746Z,99.90
2022-09-30T17:58:32.010Z,99.90
2022-09-30T18:00:59.917Z,99.90
2022-09-30T18:03:28.126Z,99.90
2022-09-30T18:05:58.871Z,99.90
2022-09-30T18:08:28.211Z,99.90
2022-09-30T18:10:57.368Z,99.90
2022-09-30T18:13:25.600Z,99.90
2022-09-30T18:15:53.997Z,99.90
2022-09-30T18:18:21.257Z,99.90
2022-09-30T18:20:50.027Z,99.90
2022-09-30T18:23:21.280Z,99.90
2022-09-30T18:25:49.671Z,99.90
2022-09-30T18:28:17.147Z,99.90
2022-09-30T18:30:44.719Z,99.90
2022-09-30T18:33:12.072Z,99.90
2022-09-30T18:35:39.826Z,99.90
2022-09-30T18:38:07.269Z,99.90
2022-09-30T18:40:34.571Z,99.90
2022-09-30T18:43:05.240Z,99.90
2022-09-30T18:45:38.331Z,99.90
2022-09-30T18:48:07.402Z,99.90
2022-09-30T18:50:34.694Z,99.90
2022-09-30T18:53:09.515Z,99.90
2022-09-30T18:55:38.177Z,99.90
2022-09-30T18:58:05.964Z,99.90
2022-09-30T19:00:33.451Z,99.90
2022-09-30T19:03:00.857Z,99.90
2022-09-30T19:05:28.347Z,99.90
2022-09-30T19:07:56.144Z,99.90
2022-09-30T19:10:24.985Z,99.90
2022-09-30T19:12:52.309Z,99.90
2022-09-30T19:15:19.711Z,99.90
2022-09-30T19:17:47.008Z,99.90
2022-09-30T19:20:17.700Z,99.90
2022-09-30T19:22:45.510Z,99.90
2022-09-30T19:25:13.078Z,99.90
2022-09-30T19:27:41.874Z,99.90
2022-09-30T19:30:11.453Z,99.90
2022-09-30T19:32:39.257Z,99.90
2022-09-30T19:35:10.397Z,99.90
2022-09-30T19:37:42.809Z,99.90
2022-09-30T19:40:21.250Z,99.90
2022-09-30T19:42:50.213Z,99.90
2022-09-30T19:45:23.392Z,99.90
2022-09-30T19:47:51.138Z,99.90
2022-09-30T19:50:18.890Z,99.90
2022-09-30T19:52:56.348Z,99.90
2022-09-30T19:55:25.697Z,99.90
2022-09-30T19:57:53.065Z,99.90
2022-09-30T20:00:20.313Z,99.90
2022-09-30T20:02:47.555Z,99.90
2022-09-30T20:05:14.836Z,99.90
2022-09-30T20:07:42.104Z,99.90
2022-09-30T20:10:09.664Z,99.90
2022-09-30T20:12:36.932Z,99.90
2022-09-30T20:15:23.029Z,99.90
2022-09-30T20:17:50.281Z,99.90
2022-09-30T20:20:36.200Z,99.90
2022-09-30T20:23:03.582Z,99.90
2022-09-30T20:25:31.326Z,99.90
2022-09-30T20:27:58.669Z,99.90
2022-09-30T20:30:29.745Z,99.90
2022-09-30T20:32:57.049Z,99.90
2022-09-30T20:35:25.301Z,99.90
2022-09-30T20:37:53.997Z,99.90
2022-09-30T20:40:21.433Z,99.90
2022-09-30T20:42:48.685Z,99.90
2022-09-30T20:45:17.989Z,99.90
2022-09-30T20:47:46.984Z,99.90
2022-09-30T20:50:14.359Z,99.90
2022-09-30T20:52:41.629Z,99.90
2022-09-30T20:55:09.443Z,99.90
2022-09-30T20:57:36.756Z,99.90
2022-09-30T21:00:04.977Z,99.90
2022-09-30T21:02:32.396Z,99.90
2022-09-30T21:04:59.954Z,99.90
2022-09-30T21:07:27.206Z,99.90
2022-09-30T21:09:54.504Z,99.90
2022-09-30T21:12:21.852Z,99.90
2022-09-30T21:14:49.268Z,99.90
2022-09-30T21:17:16.818Z,99.90
2022-09-30T21:19:44.113Z,99.90
2022-09-30T21:22:11.462Z,99.90
2022-09-30T21:24:38.738Z,99.90
2022-09-30T21:27:06.299Z,99.90
2022-09-30T21:29:33.594Z,99.90
2022-09-30T21:32:01.189Z,99.90
2022-09-30T21:34:28.504Z,99.90
2022-09-30T21:36:55.711Z,99.90
2022-09-30T21:39:23.034Z,99.90
2022-09-30T21:41:50.669Z,99.90
2022-09-30T21:44:17.948Z,99.90
2022-09-30T21:46:48.886Z,99.90
2022-09-30T21:49:21.678Z,99.90
2022-09-30T21:51:51.536Z,99.90
2022-09-30T21:54:19.201Z,99.90
2022-09-30T21:56:47.971Z,99.90
2022-09-30T21:59:15.301Z,99.90
2022-09-30T22:01:42.565Z,99.90
2022-09-30T22:04:09.948Z,99.90
2022-09-30T22:06:37.213Z,99.90
2022-09-30T22:09:05.248Z,99.90
2022-09-30T22:11:33.145Z,99.90
2022-09-30T22:14:00.839Z,99.90
2022-09-30T22:16:31.142Z,99.90
2022-09-30T22:19:00.911Z,99.90
2022-09-30T22:21:33.540Z,99.90
2022-09-30T22:24:02.608Z,99.90
2022-09-30T22:26:31.785Z,99.90
2022-09-30T22:29:01.692Z,99.90
2022-09-30T22:31:31.112Z,99.90
2022-09-30T22:34:19.883Z,99.90
2022-09-30T22:37:05.747Z,99.90
2022-09-30T22:39:33.449Z,99.90
2022-09-30T22:42:01.455Z,99.90
2022-09-30T22:44:33.872Z,99.90
2022-09-30T22:47:02.146Z,99.90
2022-09-30T22:49:34.299Z,99.90
2022-09-30T22:52:02.037Z,99.90
2022-09-30T22:54:29.866Z,99.90
2022-09-30T22:56:59.200Z,99.90
2022-09-30T22:59:27.647Z,99.90
2022-09-30T23:01:56.394Z,99.90
2022-09-30T23:04:25.782Z,99.90
2022-09-30T23:06:55.288Z,99.90
2022-09-30T23:09:23.112Z,99.90
2022-09-30T23:11:54.062Z,99.90
2022-09-30T23:14:22.393Z,99.90
2022-09-30T23:16:50.382Z,99.90
2022-09-30T23:19:18.384Z,99.90
2022-09-30T23:21:45.747Z,99.90
2022-09-30T23:24:13.197Z,99.90
2022-09-30T23:26:40.595Z,99.90
2022-09-30T23:29:11.848Z,99.90
2022-09-30T23:31:39.416Z,99.90
2022-09-30T23:34:07.408Z,99.90
2022-09-30T23:36:36.566Z,99.90
2022-09-30T23:39:21.400Z,99.90
2022-09-30T23:41:49.584Z,99.90
2022-09-30T23:44:18.605Z,99.90
2022-09-30T23:47:05.990Z,99.90
2022-09-30T23:49:35.944Z,99.90
2022-09-30T23:52:11.898Z,99.90
2022-09-30T23:54:41.627Z,99.90
2022-09-30T23:57:10.418Z,99.90
2022-09-30T23:59:38.448Z,99.90
